Time;durP1;ratioP1;P1;durP2;ratioP2;P2;SDS_P1;SDS_P2;PMS_P1;PMS_P2;Temp;Humidity;BMP_temperature;BMP_pressure;BME280_temperature;BME280_humidity;BME280_pressure;Samples;Min_cycle;Max_cycle;Signal;HPM_P1;HPM_P2
2024/03/05 00:00:39;;;;;;;;;;;;;;;20.98;52.13;100694.86;2308385;77;51423;-82
2024/03/05 00:03:41;;;;;;;;;;;;;;;20.98;52.06;100691.35;2314743;76;51762;-83
2024/03/05 00:06:43;;;;;;;;;;;;;;;20.97;52.06;100693.22;2323157;76;51999;-82
2024/03/05 00:09:44;;;;;;;;;;;;;;;20.96;52.00;100695.60;2344694;76;52414;-81
2024/03/05 00:12:47;;;;;;;;;;;;;;;20.97;51.98;100698.59;2305088;77;50364;-81
2024/03/05 00:15:50;;;;;;;;;;;;;;;20.96;51.99;100696.09;2293796;76;51005;-81
2024/03/05 00:18:52;;;;;;;;;;;;;;;20.96;51.94;100705.02;2344882;76;50938;-81
2024/03/05 00:21:53;;;;;;;;;;;;;;;20.96;51.96;100698.30;2323554;76;51211;-81
2024/03/05 00:24:55;;;;;;;;;;;;;;;20.96;51.94;100706.84;2344844;76;50684;-81
2024/03/05 00:27:56;;;;;;;;;;;;;;;20.95;51.95;100701.99;2273506;77;50995;-81
2024/03/05 00:30:58;;;;;;;;;;;;;;;20.95;52.00;100701.99;2323374;76;50706;-81
2024/03/05 00:33:59;;;;;;;;;;;;;;;20.95;52.01;100702.52;2344701;76;50733;-81
2024/03/05 00:37:01;;;;;;;;;;;;;;;20.95;52.02;100710.06;2273846;77;51752;-81
2024/03/05 00:40:06;;;;;;;;;;;;;;;20.95;52.03;100701.99;2294041;76;50883;-80
2024/03/05 00:43:06;;;;;;;;;;;;;;;20.95;52.07;100697.13;2370703;74;22505;-80
2024/03/05 00:46:08;;;;;;;;;;;;;;;20.95;52.07;100704.68;2304066;77;51729;-81
2024/03/05 00:49:09;;;;;;;;;;;;;;;20.96;52.04;100704.16;2325929;76;50341;-81
2024/03/05 00:52:11;;;;;;;;;;;;;;;20.95;51.95;100701.99;2343249;76;49620;-80
2024/03/05 00:55:13;;;;;;;;;;;;;;;20.96;51.87;100709.55;2303954;77;50626;-81
2024/03/05 00:58:14;;;;;;;;;;;;;;;20.95;51.88;100714.09;2296630;76;51558;-80
2024/03/05 01:01:16;;;;;;;;;;;;;;;20.95;51.86;100716.78;2343061;76;52609;-81
2024/03/05 01:04:18;;;;;;;;;;;;;;;20.94;51.77;100719.17;2307051;77;51473;-81
2024/03/05 01:07:20;;;;;;;;;;;;;;;20.95;51.77;100720.82;2276270;77;51792;-81
2024/03/05 01:10:21;;;;;;;;;;;;;;;20.95;51.72;100729.41;2276153;77;50643;-81
2024/03/05 01:13:23;;;;;;;;;;;;;;;20.95;51.69;100724.03;2306334;77;51495;-80
2024/03/05 01:16:26;;;;;;;;;;;;;;;20.95;51.67;100731.58;2306308;77;51509;-81
2024/03/05 01:19:29;;;;;;;;;;;;;;;20.95;51.63;100726.72;2276164;77;49571;-82
2024/03/05 01:22:30;;;;;;;;;;;;;;;20.94;51.57;100712.45;2306950;77;51555;-81
2024/03/05 01:25:33;;;;;;;;;;;;;;;20.94;51.57;100724.55;2307275;77;51401;-80
2024/03/05 01:28:34;;;;;;;;;;;;;;;20.95;51.57;100730.76;2308876;72;50686;-80
2024/03/05 01:31:36;;;;;;;;;;;;;;;20.95;51.57;100729.41;2279434;77;51661;-80
2024/03/05 01:34:37;;;;;;;;;;;;;;;20.95;51.59;100729.41;2308493;77;50679;-81
2024/03/05 01:37:39;;;;;;;;;;;;;;;20.95;51.54;100728.06;2307898;76;50747;-81
2024/03/05 01:40:41;;;;;;;;;;;;;;;20.95;51.54;100720.00;2307821;77;50270;-81
2024/03/05 01:43:43;;;;;;;;;;;;;;;20.95;51.51;100720.82;2296885;76;50040;-82
2024/03/05 01:46:45;;;;;;;;;;;;;;;20.94;51.39;100725.07;2352849;75;50020;-82
2024/03/05 01:49:47;;;;;;;;;;;;;;;20.95;51.42;100723.52;2313238;77;50749;-82
2024/03/05 01:52:48;;;;;;;;;;;;;;;20.94;51.34;100728.59;2331384;76;51502;-82
2024/03/05 01:55:53;;;;;;;;;;;;;;;20.96;51.33;100731.06;2320404;75;51072;-82
2024/03/05 01:58:54;;;;;;;;;;;;;;;20.94;51.32;100723.73;2313377;77;22294;-82
2024/03/05 02:01:56;;;;;;;;;;;;;;;20.95;51.29;100728.89;2331659;76;51411;-82
2024/03/05 02:04:58;;;;;;;;;;;;;;;20.96;51.39;100727.03;2353171;75;51608;-81
2024/03/05 02:08:00;;;;;;;;;;;;;;;20.96;51.41;100725.68;2280901;77;52531;-81
2024/03/05 02:11:02;;;;;;;;;;;;;;;20.95;51.40;100720.82;2357223;74;51049;-81
2024/03/05 02:14:04;;;;;;;;;;;;;;;20.96;51.41;100727.88;2351895;75;50937;-81
2024/03/05 02:17:07;;;;;;;;;;;;;;;20.96;51.37;100731.92;2330393;76;50733;-79
2024/03/05 02:20:13;;;;;;;;;;;;;;;20.95;51.33;100735.61;2319282;75;50123;-80
2024/03/05 02:23:12;;;;;;;;;;;;;;;20.96;51.25;100736.44;2300085;76;21899;-80
2024/03/05 02:26:14;;;;;;;;;;;;;;;20.96;51.13;100743.16;2318379;75;49951;-81
2024/03/05 02:29:16;;;;;;;;;;;;;;;20.96;51.18;100741.33;2280716;77;52108;-81
2024/03/05 02:32:19;;;;;;;;;;;;;;;20.95;51.22;100736.96;2305979;77;49313;-80
2024/03/05 02:35:21;;;;;;;;;;;;;;;20.95;51.10;100743.69;2330060;76;51632;-80
2024/03/05 02:38:23;;;;;;;;;;;;;;;20.95;51.06;100741.52;2351867;75;51461;-80
2024/03/05 02:41:25;;;;;;;;;;;;;;;20.96;51.04;100735.09;2312338;77;51599;-81
2024/03/05 02:44:26;;;;;;;;;;;;;;;20.95;51.01;100736.96;2306107;76;50947;-80
2024/03/05 02:47:28;;;;;;;;;;;;;;;20.96;50.96;100735.09;2343275;76;50219;-80
2024/03/05 02:50:29;;;;;;;;;;;;;;;20.96;50.99;100739.13;2340167;76;50465;-82
2024/03/05 02:53:31;;;;;;;;;;;;;;;20.94;50.97;100739.34;2339982;76;51263;-82
2024/03/05 02:56:33;;;;;;;;;;;;;;;20.96;50.99;100743.16;2305531;76;52475;-80
2024/03/05 02:59:36;;;;;;;;;;;;;;;20.95;51.01;100749.06;2305084;76;51142;-80
2024/03/05 03:02:37;;;;;;;;;;;;;;;20.95;51.01;100745.03;2340343;76;51527;-80
2024/03/05 03:05:39;;;;;;;;;;;;;;;20.96;50.96;100760.65;2340401;76;51377;-81
2024/03/05 03:08:40;;;;;;;;;;;;;;;20.95;50.95;100766.55;2306143;76;50977;-81
2024/03/05 03:11:42;;;;;;;;;;;;;;;20.96;50.98;100765.54;2340293;76;51776;-81
2024/03/05 03:14:44;;;;;;;;;;;;;;;20.95;50.86;100765.73;2340500;76;51464;-80
2024/03/05 03:17:45;;;;;;;;;;;;;;;20.94;50.89;100768.94;2340438;74;51269;-80
2024/03/05 03:20:47;;;;;;;;;;;;;;;20.94;50.87;100766.77;2305903;76;49581;-81
2024/03/05 03:23:49;;;;;;;;;;;;;;;20.94;50.91;100766.25;2340175;76;50614;-81
2024/03/05 03:26:51;;;;;;;;;;;;;;;20.94;50.80;100772.97;2339740;76;51569;-81
2024/03/05 03:29:52;;;;;;;;;;;;;;;20.94;50.83;100773.48;2339849;76;51203;-82
2024/03/05 03:32:54;;;;;;;;;;;;;;;20.94;50.81;100785.59;2304198;76;51514;-80
2024/03/05 03:35:56;;;;;;;;;;;;;;;20.93;50.81;100774.50;2339860;76;51595;-80
2024/03/05 03:38:57;;;;;;;;;;;;;;;20.94;50.91;100782.91;2340087;76;50674;-80
2024/03/05 03:41:59;;;;;;;;;;;;;;;20.93;50.91;100783.39;2340084;76;51369;-80
2024/03/05 03:45:01;;;;;;;;;;;;;;;20.94;50.90;100793.14;2311128;76;51725;-78
2024/03/05 03:48:02;;;;;;;;;;;;;;;20.93;50.89;100795.50;2341433;72;51162;-79
2024/03/05 03:51:04;;;;;;;;;;;;;;;20.93;50.94;100800.88;2341663;72;50727;-79
2024/03/05 03:54:06;;;;;;;;;;;;;;;20.94;50.92;100795.83;2307814;72;50618;-80
2024/03/05 03:57:07;;;;;;;;;;;;;;;20.93;50.86;100794.16;2280295;76;51629;-82
2024/03/05 04:00:09;;;;;;;;;;;;;;;20.93;50.91;100795.50;2336260;76;50715;-80
2024/03/05 04:03:11;;;;;;;;;;;;;;;20.92;50.86;100794.37;2305504;76;50720;-81
2024/03/05 04:06:12;;;;;;;;;;;;;;;20.93;50.74;100791.98;2336180;76;50734;-82
2024/03/05 04:09:14;;;;;;;;;;;;;;;20.92;50.72;100797.88;2306602;76;52447;-82
2024/03/05 04:12:15;;;;;;;;;;;;;;;20.92;50.69;100802.44;2336331;75;51519;-83
2024/03/05 04:15:18;;;;;;;;;;;;;;;20.91;50.70;100811.02;2336342;76;51491;-82
2024/03/05 04:18:21;;;;;;;;;;;;;;;20.90;50.71;100808.52;2336432;76;50763;-82
2024/03/05 04:21:23;;;;;;;;;;;;;;;20.90;50.72;100819.27;2280204;76;51033;-80
2024/03/05 04:24:25;;;;;;;;;;;;;;;20.89;50.70;100817.11;2336309;75;50908;-81
2024/03/05 04:27:30;;;;;;;;;;;;;;;20.90;50.69;100813.89;2336308;76;50658;-82
2024/03/05 04:30:31;;;;;;;;;;;;;;;20.89;50.69;100818.45;2336556;75;22510;-82
2024/03/05 04:33:33;;;;;;;;;;;;;;;20.90;50.62;100824.66;2279822;76;50130;-82
2024/03/05 04:36:37;;;;;;;;;;;;;;;20.89;50.61;100822.48;2335919;76;50702;-81
2024/03/05 04:39:41;;;;;;;;;;;;;;;20.89;50.64;100814.41;2305234;76;50495;-82
2024/03/05 04:42:43;;;;;;;;;;;;;;;20.89;50.65;100823.83;2336411;76;51477;-83
2024/03/05 04:45:45;;;;;;;;;;;;;;;20.89;50.65;100825.17;2275470;76;51574;-81
2024/03/05 04:48:48;;;;;;;;;;;;;;;20.88;50.61;100821.66;2351770;75;51208;-80
2024/03/05 04:51:50;;;;;;;;;;;;;;;20.88;50.61;100825.69;2312299;77;51443;-80
2024/03/05 04:54:51;;;;;;;;;;;;;;;20.89;50.54;100827.86;2357473;74;50364;-81
2024/03/05 04:57:53;;;;;;;;;;;;;;;20.88;50.57;100836.45;2319208;75;49531;-81
2024/03/05 05:00:55;;;;;;;;;;;;;;;20.88;50.51;100839.63;2312063;77;52387;-82
2024/03/05 05:03:56;;;;;;;;;;;;;;;20.88;50.49;100843.17;2330013;76;50345;-81
2024/03/05 05:06:58;;;;;;;;;;;;;;;20.88;50.54;100845.00;2351395;75;50266;-82
2024/03/05 05:09:59;;;;;;;;;;;;;;;20.90;50.54;100840.80;2300269;76;49449;-82
2024/03/05 05:13:01;;;;;;;;;;;;;;;20.90;50.55;100848.86;2351214;75;50703;-81
2024/03/05 05:16:02;;;;;;;;;;;;;;;20.90;50.58;100838.92;2329713;76;51461;-81
2024/03/05 05:19:06;;;;;;;;;;;;;;;20.90;50.49;100843.48;2318307;75;22235;-81
2024/03/05 05:22:07;;;;;;;;;;;;;;;20.90;50.52;100846.17;2300364;76;50864;-82
2024/03/05 05:25:09;;;;;;;;;;;;;;;20.88;50.47;100851.24;2352035;75;51497;-81
2024/03/05 05:28:11;;;;;;;;;;;;;;;20.90;50.44;100842.14;2312458;76;51099;-82
2024/03/05 05:31:14;;;;;;;;;;;;;;;20.89;50.45;100846.69;2330626;76;51427;-82
2024/03/05 05:34:16;;;;;;;;;;;;;;;20.89;50.47;100850.72;2321247;75;50991;-85
2024/03/05 05:37:18;;;;;;;;;;;;;;;20.90;50.41;100846.17;2312454;77;51507;-82
2024/03/05 05:40:20;;;;;;;;;;;;;;;20.90;50.43;100857.75;2330336;76;51514;-81
2024/03/05 05:43:21;;;;;;;;;;;;;;;20.90;50.41;100858.27;2351431;75;52248;-83
2024/03/05 05:46:23;;;;;;;;;;;;;;;20.89;50.39;100853.41;2268823;77;52328;-82
2024/03/05 05:49:25;;;;;;;;;;;;;;;20.89;50.38;100854.76;2340548;76;50694;-81
2024/03/05 05:52:26;;;;;;;;;;;;;;;20.90;50.39;100859.63;2343782;74;50378;-80
2024/03/05 05:55:28;;;;;;;;;;;;;;;20.91;50.59;100877.41;2342899;76;50396;-80
2024/03/05 05:58:29;;;;;;;;;;;;;;;20.90;50.79;100878.45;2331611;76;49616;-81
2024/03/05 06:01:33;;;;;;;;;;;;;;;20.90;50.86;100881.96;2342786;76;50456;-81
2024/03/05 06:04:39;;;;;;;;;;;;;;;20.91;51.01;100883.65;2344220;75;22065;-81
2024/03/05 06:07:40;;;;;;;;;;;;;;;20.92;51.19;100892.55;2342198;76;22381;-81
2024/03/05 06:10:41;;;;;;;;;;;;;;;20.93;51.16;100887.47;2306512;76;51002;-81
2024/03/05 06:13:44;;;;;;;;;;;;;;;20.93;50.97;100894.20;2343027;76;52010;-82
2024/03/05 06:16:46;;;;;;;;;;;;;;;20.91;51.01;100895.75;2343388;76;50833;-84
2024/03/05 06:19:48;;;;;;;;;;;;;;;20.89;50.92;100893.76;2343180;76;51477;-82
2024/03/05 06:22:49;;;;;;;;;;;;;;;20.90;51.09;100894.59;2306587;76;49860;-82
2024/03/05 06:25:51;;;;;;;;;;;;;;;20.92;50.75;100890.68;2332767;76;50939;-82
2024/03/05 06:28:53;;;;;;;;;;;;;;;20.94;50.82;100887.81;2306904;76;51485;-83
2024/03/05 06:31:55;;;;;;;;;;;;;;;20.94;50.47;100885.13;2343021;76;51513;-82
2024/03/05 06:34:57;;;;;;;;;;;;;;;20.94;50.51;100887.30;2306184;76;49666;-81
2024/03/05 06:38:00;;;;;;;;;;;;;;;20.95;50.38;100891.63;2384370;74;50627;-82
2024/03/05 06:41:03;;;;;;;;;;;;;;;20.95;50.41;100892.98;2384544;74;51400;-82
2024/03/05 06:44:10;;;;;;;;;;;;;;;20.95;50.39;100895.67;2346265;74;50985;-81
2024/03/05 06:47:14;;;;;;;;;;;;;;;20.96;50.42;100894.66;2350630;74;50225;-83
2024/03/05 06:50:23;;;;;;;;;;;;;;;20.95;50.42;100894.33;2351726;74;22582;-82
2024/03/05 06:56:43;;;;;;;;;;;;;;;20.95;50.48;100899.70;2384252;74;22370;-84
2024/03/05 06:59:45;;;;;;;;;;;;;;;20.96;50.98;100909.95;2350371;74;49531;-82
2024/03/05 07:02:47;;;;;;;;;;;;;;;20.95;50.89;100907.77;2383583;74;50948;-83
2024/03/05 07:05:48;;;;;;;;;;;;;;;20.94;50.93;100916.88;2350273;74;50698;-81
2024/03/05 07:08:53;;;;;;;;;;;;;;;20.95;50.76;100911.81;2383598;74;50390;-83
2024/03/05 07:11:54;;;;;;;;;;;;;;;20.97;50.81;100908.94;2383524;74;22472;-81
2024/03/05 07:14:55;;;;;;;;;;;;;;;20.98;50.84;100911.42;2384053;74;50747;-84
2024/03/05 07:17:57;;;;;;;;;;;;;;;20.99;50.77;100909.06;2369309;74;51449;-82
2024/03/05 07:20:58;;;;;;;;;;;;;;;21.01;50.68;100913.72;2326573;76;51502;-81
2024/03/05 07:24:00;;;;;;;;;;;;;;;21.00;51.19;100909.38;2349543;75;51070;-81
2024/03/05 07:27:02;;;;;;;;;;;;;;;21.01;51.12;100910.20;2301374;77;51569;-84
2024/03/05 07:30:04;;;;;;;;;;;;;;;21.02;51.14;100915.40;2301254;77;50748;-83
2024/03/05 07:33:07;;;;;;;;;;;;;;;21.02;51.11;100916.75;2270512;77;51821;-82
2024/03/05 07:36:08;;;;;;;;;;;;;;;21.03;51.10;100917.05;2303129;76;50130;-81
2024/03/05 07:39:11;;;;;;;;;;;;;;;21.05;50.93;100912.84;2342383;76;50408;-82
2024/03/05 07:42:13;;;;;;;;;;;;;;;21.05;50.81;100919.05;2342388;76;51555;-81
2024/03/05 07:45:16;;;;;;;;;;;;;;;21.05;50.81;100916.36;2343167;75;51546;-82
2024/03/05 07:48:17;;;;;;;;;;;;;;;21.05;50.77;100916.36;2311326;76;51026;-81
2024/03/05 07:51:19;;;;;;;;;;;;;;;21.06;50.77;100922.05;2344651;76;50958;-82
2024/03/05 07:54:21;;;;;;;;;;;;;;;21.07;50.75;100927.77;2349932;74;52171;-81
2024/03/05 07:57:22;;;;;;;;;;;;;;;21.08;50.76;100924.03;2385491;74;51543;-79
2024/03/05 08:00:24;;;;;;;;;;;;;;;21.08;50.74;100924.03;2352518;74;49390;-80
2024/03/05 08:03:26;;;;;;;;;;;;;;;21.11;50.74;100926.85;2351355;74;51568;-80
2024/03/05 08:06:28;;;;;;;;;;;;;;;21.13;51.09;100918.59;2385223;74;52140;-80
2024/03/05 08:09:30;;;;;;;;;;;;;;;21.16;51.33;100929.80;2385358;74;50125;-80
2024/03/05 08:12:32;;;;;;;;;;;;;;;21.15;51.25;100924.63;2352663;74;49602;-80
2024/03/05 08:15:33;;;;;;;;;;;;;;;21.19;51.42;100925.89;2379178;74;50667;-80
2024/03/05 08:18:35;;;;;;;;;;;;;;;21.19;51.35;100921.33;2343010;74;50485;-80
2024/03/05 08:21:36;;;;;;;;;;;;;;;21.21;51.30;100919.80;2370194;74;50761;-80
2024/03/05 08:24:38;;;;;;;;;;;;;;;21.21;51.12;100917.11;2331075;74;51026;-80
2024/03/05 08:27:41;;;;;;;;;;;;;;;21.22;51.22;100920.11;2349224;74;50307;-79
2024/03/05 08:30:43;;;;;;;;;;;;;;;21.23;50.97;100919.92;2344426;74;51535;-81
2024/03/05 08:33:44;;;;;;;;;;;;;;;21.25;50.96;100922.44;2312169;76;50705;-79
2024/03/05 08:36:46;;;;;;;;;;;;;;;21.28;50.61;100926.08;2311900;76;51572;-80
2024/03/05 08:39:48;;;;;;;;;;;;;;;21.31;50.84;100937.80;2344421;74;49927;-79
2024/03/05 08:42:49;;;;;;;;;;;;;;;21.32;50.79;100935.41;2351667;74;50620;-78
2024/03/05 08:45:51;;;;;;;;;;;;;;;21.30;50.28;100928.07;2376177;74;51670;-80
2024/03/05 08:48:53;;;;;;;;;;;;;;;21.30;49.82;100927.55;2335012;75;51021;-78
2024/03/05 08:51:57;;;;;;;;;;;;;;;21.34;50.25;100933.37;2376013;73;50635;-80
2024/03/05 08:54:58;;;;;;;;;;;;;;;21.38;50.41;100928.45;2377967;74;22349;-81
2024/03/05 08:58:00;;;;;;;;;;;;;;;21.38;49.80;100929.30;2378080;75;50811;-81
2024/03/05 09:01:02;;;;;;;;;;;;;;;21.38;49.71;100927.95;2347743;75;51042;-82
2024/03/05 09:04:06;;;;;;;;;;;;;;;21.40;49.51;100933.13;2345449;75;50716;-82
2024/03/05 09:07:07;;;;;;;;;;;;;;;21.40;49.40;100927.26;2345237;75;22535;-82
2024/03/05 09:10:14;;;;;;;;;;;;;;;21.42;49.39;100935.12;2375187;74;51205;-80
2024/03/05 09:13:12;;;;;;;;;;;;;;;21.42;49.40;100941.84;2373521;75;23597;-81
2024/03/05 09:16:14;;;;;;;;;;;;;;;21.43;49.32;100940.32;2374950;75;50601;-82
2024/03/05 09:19:16;;;;;;;;;;;;;;;21.44;49.43;100933.90;2375311;75;50607;-81
2024/03/05 09:22:19;;;;;;;;;;;;;;;21.45;49.32;100936.92;2375247;75;51526;-81
2024/03/05 09:25:20;;;;;;;;;;;;;;;21.47;49.44;100940.23;2346199;74;51650;-80
2024/03/05 09:28:22;;;;;;;;;;;;;;;21.48;49.44;100925.77;2393285;74;51835;-80
2024/03/05 09:31:23;;;;;;;;;;;;;;;21.51;49.41;100929.92;2379343;74;51808;-80
2024/03/05 09:34:25;;;;;;;;;;;;;;;21.52;49.42;100933.75;2390447;74;51512;-82
2024/03/05 09:37:28;;;;;;;;;;;;;;;21.53;49.43;100931.39;2361051;74;50073;-81
2024/03/05 09:40:29;;;;;;;;;;;;;;;21.56;49.47;100935.55;2361449;74;49761;-81
2024/03/05 09:43:31;;;;;;;;;;;;;;;21.57;49.38;100933.69;2355546;74;50423;-80
2024/03/05 09:46:32;;;;;;;;;;;;;;;21.59;49.44;100932.46;2356459;74;50716;-81
2024/03/05 09:49:34;;;;;;;;;;;;;;;21.61;49.37;100937.67;2323964;75;50968;-81
2024/03/05 09:52:36;;;;;;;;;;;;;;;21.62;49.26;100935.28;2358855;74;51566;-79
2024/03/05 09:55:37;;;;;;;;;;;;;;;21.64;49.46;100938.61;2384797;74;51732;-82
2024/03/05 09:58:39;;;;;;;;;;;;;;;21.63;49.14;100938.27;2370389;74;50769;-81
2024/03/05 10:01:49;;;;;;;;;;;;;;;21.64;49.16;100946.69;2359440;74;51699;-80
2024/03/05 10:04:47;;;;;;;;;;;;;;;21.63;49.15;100952.59;2345704;74;22473;-81
2024/03/05 10:07:49;;;;;;;;;;;;;;;21.64;49.01;100944.00;2367950;74;50679;-81
2024/03/05 10:10:52;;;;;;;;;;;;;;;21.66;49.06;100950.03;2389803;74;51837;-80
2024/03/05 10:13:54;;;;;;;;;;;;;;;21.67;49.10;100950.33;2351935;74;51092;-80
2024/03/05 10:17:00;;;;;;;;;;;;;;;21.68;48.97;100948.80;2377166;74;50769;-80
2024/03/05 10:20:02;;;;;;;;;;;;;;;21.70;48.97;100949.94;2351648;75;51505;-82
2024/03/05 10:23:04;;;;;;;;;;;;;;;21.72;48.92;100953.27;2341765;75;50459;-80
2024/03/05 10:26:19;;;;;;;;;;;;;;;21.73;48.91;100949.53;2331270;75;51019;-81
2024/03/05 10:29:21;;;;;;;;;;;;;;;21.73;48.87;100946.36;2379770;73;50715;-81
2024/03/05 10:32:25;;;;;;;;;;;;;;;21.75;48.86;100949.66;2310105;75;50731;-80
2024/03/05 10:35:26;;;;;;;;;;;;;;;21.77;48.88;100950.00;2317092;75;22349;-79
2024/03/05 10:38:27;;;;;;;;;;;;;;;21.79;48.81;100960.89;2317161;75;51011;-78
2024/03/05 10:41:32;;;;;;;;;;;;;;;21.79;48.82;100951.46;2349424;75;51600;-78
2024/03/05 10:44:35;;;;;;;;;;;;;;;21.78;48.38;100949.78;2348732;74;50463;-79
2024/03/05 10:47:36;;;;;;;;;;;;;;;21.80;48.45;100947.73;2343134;75;50776;-78
2024/03/05 10:50:38;;;;;;;;;;;;;;;21.79;48.43;100951.46;2305663;76;52527;-78
2024/03/05 10:53:40;;;;;;;;;;;;;;;21.80;48.42;100949.07;2339977;76;51419;-78
2024/03/05 10:56:41;;;;;;;;;;;;;;;21.82;48.44;100951.06;2340017;76;50733;-78
2024/03/05 10:59:51;;;;;;;;;;;;;;;21.82;48.39;100957.80;2342359;76;51464;-81
2024/03/05 11:02:46;;;;;;;;;;;;;;;21.83;48.47;100955.41;2349594;74;22946;-82
2024/03/05 11:05:49;;;;;;;;;;;;;;;21.85;48.55;100964.66;2346470;76;50780;-80
2024/03/05 11:08:51;;;;;;;;;;;;;;;21.85;48.58;100956.05;2336629;74;52125;-81
2024/03/05 11:11:56;;;;;;;;;;;;;;;21.86;48.03;100958.22;2332781;76;51566;-82
2024/03/05 11:14:58;;;;;;;;;;;;;;;21.86;47.87;100959.57;2303665;76;51024;-80
2024/03/05 11:18:01;;;;;;;;;;;;;;;21.87;47.85;100959.38;2338315;76;50314;-83
2024/03/05 11:21:05;;;;;;;;;;;;;;;21.89;47.98;100959.20;2338529;76;51010;-83
2024/03/05 11:24:06;;;;;;;;;;;;;;;21.90;48.03;100958.98;2304852;76;50913;-81
2024/03/05 11:27:14;;;;;;;;;;;;;;;21.91;48.09;100958.46;2303863;76;49692;-81
2024/03/05 11:30:19;;;;;;;;;;;;;;;21.92;48.11;100960.14;2303968;76;51110;-80
2024/03/05 11:33:24;;;;;;;;;;;;;;;21.92;48.20;100958.28;2268092;77;50110;-80
2024/03/05 11:36:25;;;;;;;;;;;;;;;21.93;48.22;100963.97;2303220;77;22297;-82
2024/03/05 11:39:27;;;;;;;;;;;;;;;21.92;48.20;100960.97;2280130;76;49790;-79
2024/03/05 11:42:28;;;;;;;;;;;;;;;21.90;48.00;100956.29;2348061;74;50541;-81
2024/03/05 11:45:49;;;;;;;;;;;;;;;21.90;48.16;100956.29;2335673;75;50690;-82
2024/03/05 11:48:52;;;;;;;;;;;;;;;21.91;48.18;100957.97;2379342;75;51346;-82
2024/03/05 11:51:55;;;;;;;;;;;;;;;21.91;48.25;100950.38;2324848;76;52597;-80
2024/03/05 11:55:01;;;;;;;;;;;;;;;21.90;48.17;100957.64;2303901;75;50780;-81
2024/03/05 11:58:03;;;;;;;;;;;;;;;21.90;48.19;100957.64;2316365;76;51063;-83
2024/03/05 12:01:05;;;;;;;;;;;;;;;21.88;48.07;100966.95;2340945;75;50785;-80
2024/03/05 12:04:07;;;;;;;;;;;;;;;21.88;48.07;100965.59;2314411;76;52454;-81
2024/03/05 12:07:12;;;;;;;;;;;;;;;21.85;47.98;100969.52;2339140;76;51450;-83
2024/03/05 12:10:15;;;;;;;;;;;;;;;21.84;48.00;100967.04;2343638;75;51506;-83
2024/03/05 12:13:18;;;;;;;;;;;;;;;21.82;48.05;100965.87;2340113;74;52202;-85
2024/03/05 12:16:19;;;;;;;;;;;;;;;21.82;47.99;100963.70;2345022;75;49374;-84
2024/03/05 12:19:21;;;;;;;;;;;;;;;21.81;48.09;100962.02;2341909;76;50099;-84
2024/03/05 12:22:23;;;;;;;;;;;;;;;21.81;47.97;100968.75;2341534;75;50689;-84
2024/03/05 12:25:27;;;;;;;;;;;;;;;21.79;48.06;100968.14;2340071;76;50750;-83
2024/03/05 12:28:29;;;;;;;;;;;;;;;21.77;47.89;100968.33;2344463;74;50939;-83
2024/03/05 12:31:30;;;;;;;;;;;;;;;21.78;47.91;100967.80;2344749;75;50731;-84
2024/03/05 12:34:32;;;;;;;;;;;;;;;21.75;48.02;100963.64;2340260;76;51607;-81
2024/03/05 12:37:35;;;;;;;;;;;;;;;21.74;48.02;100962.82;2339751;76;51589;-82
2024/03/05 12:40:37;;;;;;;;;;;;;;;21.73;48.18;100968.39;2344016;75;49604;-83
2024/03/05 12:43:39;;;;;;;;;;;;;;;21.71;48.20;100975.86;2340230;76;50760;-85
2024/03/05 12:46:40;;;;;;;;;;;;;;;21.70;48.08;100961.53;2339685;75;52561;-80
2024/03/05 12:49:47;;;;;;;;;;;;;;;21.68;48.17;100957.38;2339831;74;50932;-84
2024/03/05 12:52:48;;;;;;;;;;;;;;;21.68;48.37;100977.57;2340529;76;22339;-85
2024/03/05 12:55:49;;;;;;;;;;;;;;;21.68;48.57;100978.92;2340188;75;22387;-83
2024/03/05 12:58:51;;;;;;;;;;;;;;;21.66;48.44;100981.83;2344016;75;51565;-84
2024/03/05 13:01:56;;;;;;;;;;;;;;;21.65;48.25;100979.31;2339775;76;51417;-84
2024/03/05 13:04:58;;;;;;;;;;;;;;;21.63;47.91;100978.19;2344003;75;51004;-85
2024/03/05 13:08:00;;;;;;;;;;;;;;;21.61;47.47;100977.54;2339302;76;50944;-82
2024/03/05 13:11:01;;;;;;;;;;;;;;;21.60;46.36;100972.33;2338885;76;51705;-83
2024/03/05 13:14:12;;;;;;;;;;;;;;;21.59;45.88;100969.34;2343222;75;50557;-82
2024/03/05 13:17:09;;;;;;;;;;;;;;;21.58;45.01;100973.03;2339561;75;21744;-81
2024/03/05 13:20:20;;;;;;;;;;;;;;;21.37;37.19;100974.70;2342770;75;50766;-81
2024/03/05 13:23:22;;;;;;;;;;;;;;;21.05;38.57;100967.47;2342042;75;51549;-79
2024/03/05 13:26:24;;;;;;;;;;;;;;;21.12;41.31;100968.04;2369742;74;52610;-82
2024/03/05 13:29:26;;;;;;;;;;;;;;;21.18;41.53;100968.12;2357734;75;51592;-80
2024/03/05 13:32:27;;;;;;;;;;;;;;;21.23;41.25;100961.64;2346541;75;51743;-82
2024/03/05 13:35:30;;;;;;;;;;;;;;;21.29;41.30;100961.38;2340135;76;50768;-80
2024/03/05 13:38:34;;;;;;;;;;;;;;;21.30;41.66;100963.89;2344585;76;50685;-81
2024/03/05 13:41:38;;;;;;;;;;;;;;;21.33;41.76;100961.33;2345706;75;22807;-82
2024/03/05 13:44:40;;;;;;;;;;;;;;;21.36;42.39;100959.59;2308767;76;51821;-83
2024/03/05 13:47:42;;;;;;;;;;;;;;;21.38;42.81;100967.48;2308919;75;50394;-82
2024/03/05 13:50:51;;;;;;;;;;;;;;;21.39;42.89;100955.19;2348987;74;52100;-81
2024/03/05 13:53:48;;;;;;;;;;;;;;;21.41;43.17;100962.56;2384897;74;22262;-82
2024/03/05 13:56:50;;;;;;;;;;;;;;;21.44;43.23;100966.20;2370164;74;52695;-81
2024/03/05 13:59:54;;;;;;;;;;;;;;;21.46;43.45;100961.47;2386616;74;50571;-83
2024/03/05 14:02:55;;;;;;;;;;;;;;;21.49;43.56;100975.05;2363905;74;52013;-83
2024/03/05 14:05:58;;;;;;;;;;;;;;;21.49;43.67;100969.14;2387409;74;50095;-83
2024/03/05 14:09:00;;;;;;;;;;;;;;;21.51;43.78;100969.79;2351841;74;52627;-85
2024/03/05 14:12:01;;;;;;;;;;;;;;;21.47;43.82;100965.80;2387721;74;50849;-84
2024/03/05 14:15:08;;;;;;;;;;;;;;;21.49;43.96;100967.80;2372980;74;50744;-83
2024/03/05 14:18:08;;;;;;;;;;;;;;;21.48;43.92;100970.19;2370494;74;22921;-83
2024/03/05 14:21:10;;;;;;;;;;;;;;;21.47;44.17;100971.71;2310053;75;22333;-82
2024/03/05 14:24:12;;;;;;;;;;;;;;;21.46;44.29;100975.45;2309182;76;51786;-84
2024/03/05 14:27:14;;;;;;;;;;;;;;;21.46;44.49;100978.96;2346182;75;50796;-83
2024/03/05 14:30:17;;;;;;;;;;;;;;;21.46;44.40;100981.66;2346233;76;51801;-84
2024/03/05 14:33:19;;;;;;;;;;;;;;;21.46;44.70;100980.31;2310258;76;22306;-82
2024/03/05 14:36:21;;;;;;;;;;;;;;;21.46;44.54;100983.52;2345968;76;50787;-83
2024/03/05 14:39:23;;;;;;;;;;;;;;;21.44;44.61;100987.73;2346552;76;50657;-84
2024/03/05 14:42:25;;;;;;;;;;;;;;;21.44;44.76;100991.78;2346802;76;50635;-82
2024/03/05 14:45:26;;;;;;;;;;;;;;;21.43;44.78;100992.81;2308914;76;50098;-83
2024/03/05 14:48:28;;;;;;;;;;;;;;;21.43;44.80;100988.78;2345380;75;50617;-81
2024/03/05 14:51:29;;;;;;;;;;;;;;;21.42;44.89;100991.13;2344247;76;51429;-82
2024/03/05 14:54:31;;;;;;;;;;;;;;;21.42;44.91;100987.09;2344135;76;50718;-84
2024/03/05 14:57:32;;;;;;;;;;;;;;;21.40;44.96;100989.66;2281813;76;50379;-81
2024/03/05 15:00:34;;;;;;;;;;;;;;;21.40;44.97;100998.59;2307377;76;51407;-82
2024/03/05 15:03:36;;;;;;;;;;;;;;;21.41;45.02;100995.38;2344378;76;50360;-83
2024/03/05 15:06:37;;;;;;;;;;;;;;;21.41;45.00;100995.38;2344555;76;50155;-81
2024/03/05 15:09:39;;;;;;;;;;;;;;;21.41;45.01;101011.02;2307767;76;50164;-82
2024/03/05 15:12:41;;;;;;;;;;;;;;;21.41;44.94;101010.19;2344145;76;51494;-81
2024/03/05 15:15:42;;;;;;;;;;;;;;;21.42;44.97;101003.77;2344384;76;51493;-81
2024/03/05 15:18:45;;;;;;;;;;;;;;;21.41;45.08;100999.42;2344398;76;50742;-81
2024/03/05 15:21:47;;;;;;;;;;;;;;;21.41;45.09;101011.02;2308356;75;50114;-83
2024/03/05 15:24:48;;;;;;;;;;;;;;;21.42;45.06;101012.67;2308806;76;50212;-80
2024/03/05 15:27:50;;;;;;;;;;;;;;;21.42;45.18;101010.50;2344889;75;50436;-81
2024/03/05 15:30:51;;;;;;;;;;;;;;;21.40;45.16;101020.13;2345573;76;50754;-82
2024/03/05 15:33:56;;;;;;;;;;;;;;;21.39;45.25;101019.80;2307696;76;50112;-81
2024/03/05 15:36:58;;;;;;;;;;;;;;;21.39;45.36;101015.75;2344582;76;50729;-81